Time;durP1;ratioP1;P1;durP2;ratioP2;P2;SDS_P1;SDS_P2;PMS_P1;PMS_P2;Temp;Humidity;BMP_temperature;BMP_pressure;BME280_temperature;BME280_humidity;BME280_pressure;Samples;Min_cycle;Max_cycle;Signal;HPM_P1;HPM_P2
2023/09/23 00:00:59;;;;;;;3.85;1.25;;;;;;;22.65;45.92;100550.53;5049417;28;20041;-36
2023/09/23 00:03:27;;;;;;;4.63;1.53;;;;;;;22.65;46.27;100561.00;5049697;28;20048;-37
2023/09/23 00:05:54;;;;;;;4.70;1.08;;;;;;;22.64;46.11;100567.78;5049194;28;20045;-38
2023/09/23 00:08:22;;;;;;;2.92;0.98;;;;;;;22.64;46.00;100564.97;5049736;28;20044;-38
2023/09/23 00:10:50;;;;;;;4.10;1.35;;;;;;;22.62;46.18;100567.38;5049933;28;20059;-38
2023/09/23 00:13:20;;;;;;;3.45;1.52;;;;;;;22.63;46.05;100571.81;5049602;28;20679;-38
2023/09/23 00:15:52;;;;;;;5.43;1.48;;;;;;;22.62;45.97;100567.38;5047730;28;20057;-38
2023/09/23 00:18:19;;;;;;;3.42;1.35;;;;;;;22.62;46.11;100579.44;5049546;28;20045;-37
2023/09/23 00:20:47;;;;;;;5.07;1.20;;;;;;;22.62;46.22;100567.38;5048200;28;20049;-37
2023/09/23 00:23:15;;;;;;;4.10;1.40;;;;;;;22.63;46.11;100571.81;5048233;28;20041;-38
2023/09/23 00:25:44;;;;;;;6.55;1.50;;;;;;;22.65;46.05;100575.03;5048639;28;20045;-37
2023/09/23 00:28:12;;;;;;;2.65;0.95;;;;;;;22.62;46.02;100578.63;5063147;28;20064;-38
2023/09/23 00:30:40;;;;;;;4.47;1.40;;;;;;;22.62;45.95;100578.63;5047729;28;20053;-37
2023/09/23 00:33:08;;;;;;;4.40;1.30;;;;;;;22.59;46.14;100587.84;5049317;28;20048;-37
2023/09/23 00:35:36;;;;;;;5.45;1.40;;;;;;;22.61;46.14;100591.88;5047588;28;20057;-38
2023/09/23 00:38:07;;;;;;;3.88;0.93;;;;;;;22.62;46.27;100595.47;5047834;28;20075;-38
2023/09/23 00:40:38;;;;;;;4.22;1.02;;;;;;;22.61;46.06;100589.06;5047313;28;21561;-39
2023/09/23 00:43:06;;;;;;;3.60;1.20;;;;;;;22.59;46.09;100593.44;5048551;28;20068;-37
2023/09/23 00:45:34;;;;;;;4.38;1.10;;;;;;;22.58;46.38;100589.06;5045966;28;20585;-37
2023/09/23 00:48:02;;;;;;;3.85;0.85;;;;;;;22.60;46.33;100590.25;5048492;28;20056;-38
2023/09/23 00:50:29;;;;;;;4.85;1.08;;;;;;;22.60;46.26;100589.44;5037061;28;20085;-38
2023/09/23 00:52:58;;;;;;;4.05;1.00;;;;;;;22.59;46.24;100597.06;5048507;28;20049;-37
2023/09/23 00:55:30;;;;;;;3.40;0.90;;;;;;;22.56;46.66;100586.63;5048850;28;20045;-37
2023/09/23 00:58:00;;;;;;;4.93;1.30;;;;;;;22.54;46.45;100582.59;5048317;28;20053;-38
2023/09/23 01:00:30;;;;;;;4.22;1.20;;;;;;;22.55;46.56;100587.03;5049047;28;20052;-38
2023/09/23 01:02:59;;;;;;;4.38;1.20;;;;;;;22.56;46.56;100591.44;5048504;28;20043;-38
2023/09/23 01:05:28;;;;;;;3.30;1.10;;;;;;;22.54;46.68;100589.03;5047803;28;20057;-38
2023/09/23 01:08:00;;;;;;;3.92;1.30;;;;;;;22.54;46.64;100589.03;5052104;28;20665;-37
2023/09/23 01:10:28;;;;;;;3.00;1.05;;;;;;;22.51;46.75;100583.38;5053849;28;20048;-38
2023/09/23 01:12:56;;;;;;;4.25;1.10;;;;;;;22.54;46.73;100594.66;5055766;28;20072;-38
2023/09/23 01:15:27;;;;;;;4.30;1.02;;;;;;;22.46;47.01;100587.38;5055297;28;20550;-37
2023/09/23 01:17:54;;;;;;;2.30;1.00;;;;;;;22.53;46.63;100592.19;5050731;28;20049;-37
2023/09/23 01:20:22;;;;;;;3.80;1.08;;;;;;;22.53;46.61;100601.44;5053696;28;20049;-38
2023/09/23 01:22:49;;;;;;;2.75;0.90;;;;;;;22.54;46.79;100596.63;5054134;28;20053;-38
2023/09/23 01:25:19;;;;;;;3.97;1.33;;;;;;;22.50;46.84;100593.81;5054429;28;20052;-37
2023/09/23 01:27:46;;;;;;;3.25;1.05;;;;;;;22.53;46.84;100595.00;5053877;28;20071;-37
2023/09/23 01:30:14;;;;;;;3.55;1.00;;;;;;;22.52;47.02;100601.81;5052857;28;20048;-37
2023/09/23 01:32:41;;;;;;;4.32;1.10;;;;;;;22.52;47.05;100601.81;5052237;28;20055;-37
2023/09/23 01:35:09;;;;;;;3.72;0.90;;;;;;;22.50;47.07;100599.41;5051863;28;20056;-38
2023/09/23 01:37:37;;;;;;;3.97;1.08;;;;;;;22.51;46.91;100600.22;5049958;28;20053;-37
2023/09/23 01:40:05;;;;;;;5.55;1.30;;;;;;;22.50;46.97;100595.81;5054496;28;20052;-38
2023/09/23 01:42:33;;;;;;;4.35;1.17;;;;;;;22.47;47.19;100600.22;5055473;28;20459;-38
2023/09/23 01:45:00;;;;;;;3.97;1.13;;;;;;;22.48;47.09;100598.19;5054906;28;20053;-38
2023/09/23 01:47:27;;;;;;;3.00;0.90;;;;;;;22.45;46.97;100599.81;5047385;28;20045;-37
2023/09/23 01:49:56;;;;;;;3.58;1.00;;;;;;;22.41;47.19;100609.41;5053502;28;20048;-38
2023/09/23 01:52:23;;;;;;;3.50;1.15;;;;;;;22.46;47.04;100623.84;5053455;28;20064;-37
2023/09/23 01:54:50;;;;;;;4.68;1.13;;;;;;;22.44;47.89;100623.44;5053653;28;20558;-38
2023/09/23 01:57:18;;;;;;;3.25;1.10;;;;;;;22.47;47.12;100617.06;5054263;28;20527;-38
2023/09/23 01:59:45;;;;;;;5.30;1.40;;;;;;;22.47;47.07;100627.47;5036473;28;20116;-43
2023/09/23 02:02:12;;;;;;;2.83;0.98;;;;;;;22.48;47.10;100617.84;5051255;28;20036;-38
2023/09/23 02:04:40;;;;;;;3.58;1.00;;;;;;;22.47;47.32;100627.47;5053492;28;20511;-37
2023/09/23 02:07:10;;;;;;;5.03;1.13;;;;;;;22.43;47.39;100629.47;5048520;28;20056;-37
2023/09/23 02:09:38;;;;;;;5.18;1.42;;;;;;;22.48;47.00;100631.88;5055622;28;20116;-37
2023/09/23 02:12:05;;;;;;;4.60;1.13;;;;;;;22.44;47.24;100631.88;5042214;28;20041;-37
2023/09/23 02:14:33;;;;;;;5.07;1.27;;;;;;;22.42;46.96;100634.25;5055180;28;20045;-37
2023/09/23 02:17:00;;;;;;;3.65;0.98;;;;;;;22.43;46.95;100632.25;5035872;28;20049;-37
2023/09/23 02:19:28;;;;;;;2.80;1.15;;;;;;;22.43;46.89;100633.09;5049914;28;20045;-37
2023/09/23 02:21:55;;;;;;;3.67;1.20;;;;;;;22.43;46.90;100632.25;5033333;28;20049;-38
2023/09/23 02:24:22;;;;;;;3.60;1.00;;;;;;;22.40;47.08;100638.69;5050059;28;20748;-37
2023/09/23 02:26:50;;;;;;;5.25;1.00;;;;;;;22.30;47.06;100649.47;5047942;28;20067;-37
2023/09/23 02:29:17;;;;;;;4.05;1.00;;;;;;;22.37;47.00;100653.50;5051445;28;20601;-38
2023/09/23 02:31:47;;;;;;;4.50;1.13;;;;;;;22.41;46.97;100657.13;5052644;28;20055;-37
2023/09/23 02:34:16;;;;;;;3.72;1.20;;;;;;;22.38;47.02;100653.13;5050165;28;20056;-38
2023/09/23 02:36:47;;;;;;;2.90;1.10;;;;;;;22.41;46.80;100651.50;5051130;28;20119;-37
2023/09/23 02:39:19;;;;;;;4.07;1.27;;;;;;;22.42;46.84;100651.09;5051719;28;20037;-38
2023/09/23 02:41:48;;;;;;;3.15;1.00;;;;;;;22.40;46.97;100659.13;5050674;28;20057;-37
2023/09/23 02:44:19;;;;;;;6.70;1.40;;;;;;;22.39;47.20;100663.13;5054155;28;20049;-38
2023/09/23 02:46:46;;;;;;;4.55;1.10;;;;;;;22.42;47.07;100661.56;5050559;28;20056;-38
2023/09/23 02:49:14;;;;;;;3.38;1.00;;;;;;;22.42;47.40;100656.72;5049966;28;20044;-38
2023/09/23 02:51:44;;;;;;;4.63;1.15;;;;;;;22.39;47.47;100670.75;5033466;28;20041;-38
2023/09/23 02:54:15;;;;;;;3.83;1.00;;;;;;;22.41;47.27;100669.16;5037087;28;20049;-38
2023/09/23 02:56:43;;;;;;;5.15;1.20;;;;;;;22.40;47.07;100675.16;5049750;28;20443;-37
2023/09/23 02:59:21;;;;;;;3.83;1.33;;;;;;;22.26;47.50;100681.53;5049864;28;20053;-38
2023/09/23 03:01:51;;;;;;;4.85;1.20;;;;;;;22.30;47.67;100677.53;5050476;28;20045;-38
2023/09/23 03:04:23;;;;;;;;;;;;;;;22.26;48.08;100673.88;5050361;28;20049;-38
2023/09/23 03:06:59;;;;;;;5.72;1.40;;;;;;;22.31;48.10;100684.75;5039375;28;19921;-38
2023/09/23 03:09:32;;;;;;;4.50;0.88;;;;;;;22.34;47.64;100677.53;5047188;28;20056;-38
2023/09/23 03:12:00;;;;;;;2.58;0.80;;;;;;;22.30;47.86;100690.75;5048730;28;20044;-38
2023/09/23 03:14:42;;;;;;;2.72;0.80;;;;;;;22.29;47.40;100689.97;5047942;28;20053;-37
2023/09/23 03:17:21;;;;;;;4.18;1.35;;;;;;;22.35;47.38;100696.78;5050014;28;20064;-38
2023/09/23 03:19:51;;;;;;;3.28;1.02;;;;;;;22.33;47.41;100695.59;5050633;28;20452;-37
2023/09/23 03:22:21;;;;;;;2.88;0.90;;;;;;;22.31;47.62;100703.59;5048676;28;20041;-37
2023/09/23 03:24:50;;;;;;;3.25;1.08;;;;;;;22.30;47.58;100702.78;5043767;28;20052;-37
2023/09/23 03:27:18;;;;;;;4.55;1.15;;;;;;;22.28;47.59;100705.16;5048512;28;20048;-37
2023/09/23 03:29:49;;;;;;;5.45;0.98;;;;;;;22.34;47.28;100702.81;5049151;28;20059;-37
2023/09/23 03:32:16;;;;;;;3.28;0.98;;;;;;;22.21;47.61;100721.97;5050281;28;20036;-37
2023/09/23 03:34:44;;;;;;;5.13;1.20;;;;;;;22.29;47.34;100718.03;5032000;28;20056;-38
2023/09/23 03:37:12;;;;;;;4.35;1.10;;;;;;;22.28;47.10;100727.63;5041321;28;20068;-37
2023/09/23 03:39:40;;;;;;;3.45;1.00;;;;;;;22.28;47.04;100733.22;5049256;28;20334;-36
2023/09/23 03:42:09;;;;;;;3.95;1.30;;;;;;;22.27;47.28;100725.22;5049865;28;20419;-37
2023/09/23 03:44:36;;;;;;;5.57;1.38;;;;;;;22.28;47.17;100729.66;5054062;28;20076;-37
2023/09/23 03:47:03;;;;;;;4.63;1.30;;;;;;;22.28;47.11;100732.44;5049247;28;20053;-36
2023/09/23 03:49:31;;;;;;;8.32;1.30;;;;;;;22.29;47.15;100734.88;5048426;28;20049;-37
2023/09/23 03:51:58;;;;;;;4.50;1.00;;;;;;;22.28;47.13;100735.25;5050091;28;20056;-37
2023/09/23 03:54:28;;;;;;;4.25;1.08;;;;;;;22.43;46.97;100733.31;5050117;28;20059;-38
2023/09/23 03:56:57;;;;;;;7.30;1.20;;;;;;;22.45;46.75;100728.13;5048620;28;20057;-38
2023/09/23 03:59:24;;;;;;;4.38;0.93;;;;;;;22.57;46.45;100731.44;5048238;28;20057;-37
2023/09/23 04:01:51;;;;;;;3.35;1.27;;;;;;;22.54;46.40;100731.38;5050056;28;20041;-36
2023/09/23 04:04:19;;;;;;;5.82;1.33;;;;;;;22.53;46.41;100738.19;5048440;28;20049;-37
2023/09/23 04:06:47;;;;;;;4.50;1.00;;;;;;;22.52;46.54;100736.59;5048670;28;20044;-37
2023/09/23 04:09:14;;;;;;;3.83;0.90;;;;;;;22.50;46.46;100741.78;5048594;28;20648;-39
2023/09/23 04:11:41;;;;;;;6.32;1.20;;;;;;;22.47;46.44;100739.75;5049947;28;20053;-37
2023/09/23 04:14:09;;;;;;;3.78;1.13;;;;;;;22.40;46.52;100743.34;5048825;28;20099;-39
2023/09/23 04:16:36;;;;;;;4.88;1.27;;;;;;;22.46;46.66;100744.56;5049454;28;20056;-38
2023/09/23 04:19:03;;;;;;;4.03;1.10;;;;;;;22.48;46.61;100749.78;5047343;28;20150;-38
2023/09/23 04:21:31;;;;;;;5.80;1.25;;;;;;;22.44;46.56;100743.38;5049740;28;20049;-38
2023/09/23 04:24:00;;;;;;;3.97;1.10;;;;;;;22.47;46.43;100745.38;5049616;28;20045;-38
2023/09/23 04:26:28;;;;;;;3.13;1.03;;;;;;;22.44;46.34;100751.78;5051993;28;20053;-37
2023/09/23 04:28:55;;;;;;;5.10;1.00;;;;;;;22.44;46.52;100754.59;5041138;28;20048;-37
2023/09/23 04:31:24;;;;;;;4.25;0.90;;;;;;;22.21;46.92;100752.06;5050335;28;20036;-36
2023/09/23 04:33:51;;;;;;;7.18;1.30;;;;;;;22.31;47.02;100756.91;5050036;28;20121;-38
2023/09/23 04:36:21;;;;;;;3.13;0.82;;;;;;;22.40;46.45;100765.81;5049511;28;20380;-38
2023/09/23 04:38:49;;;;;;;4.60;0.90;;;;;;;22.42;46.37;100766.19;5048974;28;20049;-39
2023/09/23 04:41:16;;;;;;;4.03;1.00;;;;;;;22.42;46.47;100768.22;5050068;28;20041;-37
2023/09/23 04:43:44;;;;;;;3.88;1.30;;;;;;;22.43;46.33;100770.63;5051979;28;20059;-38
2023/09/23 04:46:14;;;;;;;4.50;1.15;;;;;;;22.41;46.20;100773.00;5049091;28;20454;-38
2023/09/23 04:48:42;;;;;;;3.13;1.10;;;;;;;22.43;46.10;100773.44;5058198;28;20060;-37
2023/09/23 04:51:10;;;;;;;5.00;1.35;;;;;;;22.52;45.76;100782.31;5047707;28;20052;-38
2023/09/23 04:53:38;;;;;;;7.20;1.40;;;;;;;22.41;45.95;100780.63;5049401;28;20148;-38
2023/09/23 04:56:16;;;;;;;3.58;1.02;;;;;;;22.38;46.24;100787.84;5048480;28;20491;-38
2023/09/23 04:58:44;;;;;;;3.13;1.00;;;;;;;22.35;46.08;100791.44;5047583;28;20052;-38
2023/09/23 05:01:12;;;;;;;3.00;0.98;;;;;;;22.42;45.93;100797.06;5048659;28;20059;-37
2023/09/23 05:03:39;;;;;;;4.13;1.23;;;;;;;22.40;45.93;100793.06;5048445;28;20051;-38
2023/09/23 05:06:08;;;;;;;4.63;1.10;;;;;;;22.34;46.03;100796.25;5048786;28;20053;-39
2023/09/23 05:08:35;;;;;;;5.00;1.30;;;;;;;22.27;46.44;100796.19;5048876;28;20057;-37
2023/09/23 05:11:06;;;;;;;4.63;1.17;;;;;;;22.37;46.04;100796.66;5048003;28;20048;-39
2023/09/23 05:13:37;;;;;;;6.80;1.20;;;;;;;22.37;46.10;100802.28;5049341;28;20041;-39
2023/09/23 05:16:04;;;;;;;3.35;1.10;;;;;;;22.35;45.83;100805.47;5048665;28;20068;-39
2023/09/23 05:18:32;;;;;;;3.28;1.02;;;;;;;22.45;45.71;100809.53;5046891;28;20056;-38
2023/09/23 05:21:00;;;;;;;5.05;1.10;;;;;;;22.47;45.71;100809.94;5048171;28;20052;-39
2023/09/23 05:23:28;;;;;;;2.95;1.00;;;;;;;22.44;45.69;100808.72;5047956;28;20049;-37
2023/09/23 05:25:57;;;;;;;5.03;1.65;;;;;;;22.38;45.70;100818.72;5049433;28;20041;-37
2023/09/23 05:28:26;;;;;;;4.63;1.17;;;;;;;22.37;45.69;100808.66;5046707;28;20048;-38
2023/09/23 05:30:54;;;;;;;6.00;1.48;;;;;;;22.37;45.68;100822.69;5048495;28;20053;-38
2023/09/23 05:33:21;;;;;;;5.57;1.17;;;;;;;22.36;45.51;100829.53;5039630;28;20045;-38
2023/09/23 05:35:48;;;;;;;5.10;1.10;;;;;;;22.35;45.79;100825.13;5046449;28;20049;-38
2023/09/23 05:38:15;;;;;;;8.73;1.30;;;;;;;22.35;45.78;100833.53;5047243;28;20056;-37
2023/09/23 05:40:43;;;;;;;3.83;0.98;;;;;;;22.38;45.53;100849.59;5046629;28;20041;-38
2023/09/23 05:43:11;;;;;;;5.90;1.08;;;;;;;22.31;45.77;100858.78;5062457;28;20049;-38
2023/09/23 05:45:38;;;;;;;6.68;1.38;;;;;;;22.35;45.55;100862.38;5047195;28;20052;-37
2023/09/23 05:48:06;;;;;;;5.20;1.00;;;;;;;22.33;45.54;100859.16;5047677;28;20415;-37
2023/09/23 05:50:36;;;;;;;6.10;1.20;;;;;;;22.31;45.63;100864.38;5047945;28;20697;-38
2023/09/23 05:53:04;;;;;;;5.57;1.05;;;;;;;22.30;45.58;100876.78;5049071;28;20052;-39
2023/09/23 05:55:31;;;;;;;3.75;1.25;;;;;;;22.33;45.60;100875.22;5051524;28;20052;-37
2023/09/23 05:57:59;;;;;;;3.83;1.13;;;;;;;22.31;45.78;100883.22;5052385;28;20048;-39
2023/09/23 06:00:26;;;;;;;5.15;1.20;;;;;;;22.28;45.56;100884.78;5050764;28;20052;-38
2023/09/23 06:02:53;;;;;;;3.95;1.00;;;;;;;22.26;45.75;100875.94;5051147;28;20048;-37
2023/09/23 06:05:21;;;;;;;3.58;1.25;;;;;;;22.28;45.66;100884.78;5052183;28;20369;-39
2023/09/23 06:07:49;;;;;;;4.43;1.10;;;;;;;22.34;45.27;100882.44;5051516;28;20044;-38
2023/09/23 06:10:18;;;;;;;4.38;1.00;;;;;;;22.37;45.33;100890.06;5050362;28;20057;-38
2023/09/23 06:12:46;;;;;;;4.28;1.30;;;;;;;22.33;45.42;100898.47;5052089;28;20051;-39
2023/09/23 06:15:13;;;;;;;5.40;1.23;;;;;;;22.23;45.84;100899.19;5051657;28;20061;-37
2023/09/23 06:17:40;;;;;;;7.75;2.58;;;;;;;22.36;46.21;100905.31;5051759;28;20056;-39
2023/09/23 06:20:09;;;;;;;7.95;2.70;;;;;;;22.31;46.14;100911.28;5049617;28;20053;-37
2023/09/23 06:22:37;;;;;;;7.13;1.63;;;;;;;22.27;46.26;100916.88;5051411;28;20052;-37
2023/09/23 06:25:04;;;;;;;7.47;2.28;;;;;;;22.26;46.06;100915.22;5052255;28;20075;-38
2023/09/23 06:27:32;;;;;;;5.35;1.92;;;;;;;22.31;45.67;100920.53;5043356;28;20049;-36
2023/09/23 06:29:59;;;;;;;5.97;1.52;;;;;;;22.55;45.20;100924.75;5034250;28;20060;-37
2023/09/23 06:32:27;;;;;;;5.20;1.38;;;;;;;22.51;45.59;100926.69;5052878;28;20053;-38
2023/09/23 06:34:54;;;;;;;7.22;1.67;;;;;;;22.49;45.13;100929.06;5051469;28;20051;-37
2023/09/23 06:37:22;;;;;;;7.28;1.45;;;;;;;22.51;45.07;100937.91;5051842;28;20048;-42
2023/09/23 06:39:49;;;;;;;8.75;1.88;;;;;;;22.42;45.43;100936.63;5049948;28;20053;-39
2023/09/23 06:42:16;;;;;;;4.47;1.65;;;;;;;22.44;45.32;100934.25;5049856;28;20064;-37
2023/09/23 06:44:45;;;;;;;6.55;1.67;;;;;;;22.38;45.27;100936.59;5056449;28;20048;-36
2023/09/23 06:47:12;;;;;;;5.78;1.50;;;;;;;22.36;44.93;100939.00;5052202;28;20052;-38
2023/09/23 06:49:40;;;;;;;6.65;1.40;;;;;;;22.34;45.19;100947.00;5051240;28;20059;-38
2023/09/23 06:52:07;;;;;;;5.45;1.60;;;;;;;22.32;45.09;100947.38;5050769;28;20056;-38
2023/09/23 06:54:34;;;;;;;4.85;1.38;;;;;;;22.31;45.41;100954.19;5051173;28;20044;-37
2023/09/23 06:57:02;;;;;;;5.13;1.25;;;;;;;22.09;45.98;100948.72;5051347;28;20056;-37
2023/09/23 06:59:29;;;;;;;4.97;1.63;;;;;;;21.89;46.82;100953.75;5050938;28;20052;-37
2023/09/23 07:01:57;;;;;;;8.13;1.80;;;;;;;22.09;46.53;100965.56;5051473;28;20045;-38
2023/09/23 07:04:24;;;;;;;13.30;1.70;;;;;;;22.14;46.45;100963.22;5050040;28;20047;-37
2023/09/23 07:06:51;;;;;;;7.03;1.67;;;;;;;22.16;46.09;100966.47;5042223;28;20056;-38
2023/09/23 07:09:19;;;;;;;5.38;1.40;;;;;;;22.15;46.02;100969.66;5047032;28;20060;-37
2023/09/23 07:11:46;;;;;;;8.70;1.55;;;;;;;22.13;46.23;100978.47;5049671;28;20084;-37
2023/09/23 07:14:13;;;;;;;7.93;1.60;;;;;;;22.16;46.11;100977.69;5050364;28;20547;-39
2023/09/23 07:16:41;;;;;;;5.80;1.85;;;;;;;22.17;46.17;100982.13;5047311;28;20052;-38
2023/09/23 07:19:10;;;;;;;5.70;1.75;;;;;;;22.18;46.05;100992.13;5050905;28;20296;-38
2023/09/23 07:21:37;;;;;;;6.60;1.67;;;;;;;22.08;46.26;100998.44;5055718;28;20057;-37
2023/09/23 07:24:05;;;;;;;6.78;1.55;;;;;;;22.04;46.29;101010.81;5048768;28;20049;-37
2023/09/23 07:26:37;;;;;;;7.63;1.98;;;;;;;22.02;46.40;101004.81;5047273;28;20049;-38
2023/09/23 07:29:04;;;;;;;4.45;1.40;;;;;;;22.11;46.07;101011.72;5050274;28;20052;-37
2023/09/23 07:31:31;;;;;;;6.72;1.45;;;;;;;22.13;45.95;101016.94;5050652;28;20044;-37
2023/09/23 07:33:59;;;;;;;5.30;1.40;;;;;;;22.15;46.15;101022.97;5050676;28;20052;-36
2023/09/23 07:36:26;;;;;;;5.93;1.33;;;;;;;22.16;46.16;101018.97;5044188;28;20063;-37
2023/09/23 07:38:53;;;;;;;7.28;1.80;;;;;;;22.15;45.84;101020.97;5047291;28;20041;-37
2023/09/23 07:41:21;;;;;;;6.85;2.05;;;;;;;22.17;46.04;101026.19;5045645;28;20045;-39
2023/09/23 07:43:49;;;;;;;3.88;1.35;;;;;;;22.15;45.84;101028.59;5046244;28;20059;-38
2023/09/23 07:46:17;;;;;;;5.85;1.63;;;;;;;22.15;45.99;101040.63;5050486;28;20053;-38
2023/09/23 07:48:44;;;;;;;5.68;1.88;;;;;;;22.19;45.91;101037.84;5053901;28;20052;-47
2023/09/23 07:51:12;;;;;;;3.72;1.40;;;;;;;22.19;45.76;101040.66;5062069;28;20095;-45
2023/09/23 07:53:39;;;;;;;4.45;1.67;;;;;;;22.19;45.86;101043.47;5045501;28;20048;-46
2023/09/23 07:56:07;;;;;;;7.90;2.35;;;;;;;21.92;45.75;101055.94;5049808;28;20049;-46
2023/09/23 07:58:34;;;;;;;8.10;1.70;;;;;;;21.90;46.99;101055.53;5042171;28;20057;-48
2023/09/23 08:01:02;;;;;;;5.13;1.60;;;;;;;22.12;46.31;101066.63;5048050;28;20052;-44
2023/09/23 08:03:30;;;;;;;6.43;1.67;;;;;;;22.18;45.99;101070.72;5030065;28;20041;-49
2023/09/23 08:05:58;;;;;;;5.80;1.90;;;;;;;22.11;46.22;101078.22;5049897;28;20048;-50
2023/09/23 08:08:25;;;;;;;7.15;2.10;;;;;;;22.02;46.36;101078.53;5047178;28;20059;-47
2023/09/23 08:10:53;;;;;;;8.40;2.83;;;;;;;22.06;46.20;101084.19;5044516;28;20487;-47
2023/09/23 08:13:21;;;;;;;6.85;1.77;;;;;;;22.16;46.14;101086.31;5048595;28;20056;-48
2023/09/23 08:15:56;;;;;;;7.03;1.77;;;;;;;22.19;46.16;101097.56;5049192;28;20059;-44
2023/09/23 08:18:24;;;;;;;7.15;2.40;;;;;;;21.88;45.73;101100.78;5049267;28;20535;-46
2023/09/23 08:20:59;;;;;;;9.93;2.10;;;;;;;21.77;47.30;101110.22;5052571;28;20053;-48
2023/09/23 08:23:26;;;;;;;6.25;2.03;;;;;;;21.85;47.10;101115.56;5049402;28;20057;-48
2023/09/23 08:25:55;;;;;;;6.10;2.17;;;;;;;21.72;47.52;101121.78;5051240;28;20049;-47
2023/09/23 08:28:23;;;;;;;6.43;2.35;;;;;;;22.04;46.72;101118.25;5049007;28;20056;-45
2023/09/23 08:30:51;;;;;;;7.18;2.20;;;;;;;22.12;46.51;101121.94;5051238;28;20052;-47
2023/09/23 08:33:19;;;;;;;7.30;2.00;;;;;;;22.12;46.48;101117.13;5049349;28;20056;-45
2023/09/23 08:35:48;;;;;;;9.88;2.30;;;;;;;22.18;46.12;101123.22;5049081;28;20057;-48
2023/09/23 08:38:15;;;;;;;7.40;2.22;;;;;;;22.21;46.27;101134.47;5049821;28;20056;-49
2023/09/23 08:40:44;;;;;;;5.50;2.10;;;;;;;22.22;46.23;101138.94;5048852;28;20071;-43
2023/09/23 08:43:12;;;;;;;6.78;2.15;;;;;;;22.10;46.30;101135.56;5049363;28;20071;-49
2023/09/23 08:45:43;;;;;;;6.45;1.70;;;;;;;21.91;46.93;101144.94;5047252;28;20041;-48
2023/09/23 08:48:13;;;;;;;8.65;2.00;;;;;;;22.06;46.51;101146.72;5049322;28;20542;-50
2023/09/23 08:50:44;;;;;;;5.03;1.80;;;;;;;21.71;47.14;101151.78;5047163;28;20051;-45
2023/09/23 08:53:14;;;;;;;5.43;1.67;;;;;;;21.81;47.40;101142.75;5048125;28;20303;-47
2023/09/23 08:55:42;;;;;;;7.50;2.05;;;;;;;22.06;46.81;101148.72;5048654;28;20048;-47
2023/09/23 08:58:09;;;;;;;6.22;1.88;;;;;;;21.73;47.25;101160.66;5046259;28;20072;-50
2023/09/23 09:00:37;;;;;;;7.97;2.25;;;;;;;21.24;47.73;101171.88;5045515;28;20388;-37
2023/09/23 09:03:04;;;;;;;7.43;1.95;;;;;;;20.46;48.93;101160.38;5048664;28;20052;-37
2023/09/23 09:05:38;;;;;;;7.53;2.25;;;;;;;21.48;48.39;101165.03;5046359;28;20155;-37
2023/09/23 09:08:06;;;;;;;7.82;1.88;;;;;;;21.61;47.87;101169.28;5047997;28;20060;-37
2023/09/23 09:10:34;;;;;;;8.05;1.95;;;;;;;21.36;46.85;101164.47;5051163;28;20463;-37
2023/09/23 09:13:03;;;;;;;7.95;1.70;;;;;;;21.23;48.73;101172.25;5046991;28;20751;-37
2023/09/23 09:15:30;;;;;;;5.80;2.08;;;;;;;21.65;48.01;101175.75;5050292;28;20049;-38
2023/09/23 09:17:58;;;;;;;8.38;2.05;;;;;;;21.30;48.96;101179.97;5062677;28;20040;-39
2023/09/23 09:20:26;;;;;;;5.63;1.95;;;;;;;21.57;48.39;101170.38;5061367;28;20052;-38
2023/09/23 09:22:54;;;;;;;7.53;1.73;;;;;;;21.75;47.71;101177.91;5060474;28;20049;-37
2023/09/23 09:25:21;;;;;;;7.47;1.95;;;;;;;20.93;49.51;101174.06;5051083;28;20045;-47
2023/09/23 09:27:51;;;;;;;5.25;1.58;;;;;;;21.57;48.66;101168.41;5058565;28;20041;-38
2023/09/23 09:30:19;;;;;;;9.50;1.75;;;;;;;22.05;47.63;101163.94;5054807;28;20044;-38
2023/09/23 09:32:47;;;;;;;7.30;1.80;;;;;;;22.09;46.73;101161.97;5061303;28;20049;-39
2023/09/23 09:35:17;;;;;;;5.15;1.55;;;;;;;22.18;47.24;101156.88;5061844;28;20060;-38
2023/09/23 09:37:46;;;;;;;5.63;1.90;;;;;;;22.21;46.81;101162.56;5056639;28;20407;-37
2023/09/23 09:40:18;;;;;;;5.93;1.70;;;;;;;22.21;46.92;101167.38;5061325;28;20052;-37
2023/09/23 09:42:54;;;;;;;6.03;1.95;;;;;;;22.10;47.09;101170.03;5060054;28;20057;-38
2023/09/23 09:45:22;;;;;;;5.13;1.63;;;;;;;22.07;47.46;101170.78;5056005;28;20044;-38
2023/09/23 09:47:57;;;;;;;8.75;2.35;;;;;;;21.49;47.26;101183.50;5059151;28;20044;-39
2023/09/23 09:50:25;;;;;;;8.90;2.35;;;;;;;20.87;51.26;101172.78;5061023;28;20803;-37
2023/09/23 09:52:53;;;;;;;7.03;2.15;;;;;;;21.62;50.12;101175.69;5055340;28;20052;-38
2023/09/23 09:55:20;;;;;;;8.02;2.22;;;;;;;22.04;49.54;101179.97;5051399;28;20033;-38
2023/09/23 09:57:48;;;;;;;8.65;1.92;;;;;;;21.63;49.45;101197.75;5054398;28;20048;-38
2023/09/23 10:00:33;;;;;;;7.00;2.05;;;;;;;21.84;50.04;101188.88;5052123;28;20064;-37
2023/09/23 10:03:02;;;;;;;13.27;2.65;;;;;;;;;;5047647;28;20637;-38
2023/09/23 10:05:33;;;;;;;8.23;2.03;;;;;;;22.14;50.24;101187.72;5052314;28;20045;-38
2023/09/23 10:08:19;;;;;;;13.25;2.25;;;;;;;22.51;50.75;101195.44;5051887;28;20071;-37
2023/09/23 10:10:49;;;;;;;11.57;2.42;;;;;;;22.57;49.68;101188.28;5051663;28;20519;-39
2023/09/23 10:13:19;;;;;;;8.40;2.10;;;;;;;22.52;49.95;101197.03;5052148;28;20045;-39
2023/09/23 10:15:47;;;;;;;7.78;2.05;;;;;;;22.55;48.86;101191.50;5050315;28;20040;-37
2023/09/23 10:18:17;;;;;;;27.92;2.28;;;;;;;22.24;48.64;101194.66;5052057;28;20041;-38
2023/09/23 10:20:50;;;;;;;11.63;2.10;;;;;;;21.80;50.11;101194.44;5052394;28;20710;-38
2023/09/23 10:23:19;;;;;;;9.48;2.10;;;;;;;21.92;48.96;101199.00;5048127;28;20057;-37
2023/09/23 10:25:50;;;;;;;6.45;1.90;;;;;;;21.91;47.81;101203.84;5048230;28;20052;-37
2023/09/23 10:28:21;;;;;;;16.40;2.72;;;;;;;21.85;48.83;101202.53;5031520;28;20060;-38
2023/09/23 10:31:06;;;;;;;11.80;2.28;;;;;;;21.96;47.66;101205.50;5049568;28;20057;-39
2023/09/23 10:33:36;;;;;;;8.90;1.70;;;;;;;21.94;48.03;101203.06;5050741;28;20060;-38
2023/09/23 10:36:05;;;;;;;6.65;1.92;;;;;;;22.00;47.34;101209.94;5063360;28;20060;-37
2023/09/23 10:38:38;;;;;;;9.43;2.08;;;;;;;22.07;46.84;101207.25;5052187;28;20044;-38
2023/09/23 10:41:05;;;;;;;8.82;2.90;;;;;;;22.10;46.36;101206.50;5054412;28;20045;-38
2023/09/23 10:43:34;;;;;;;6.78;1.77;;;;;;;22.11;46.38;101201.69;5052148;28;20045;-38
2023/09/23 10:46:02;;;;;;;7.10;1.80;;;;;;;22.12;45.87;101206.91;5052184;28;20043;-40
2023/09/23 10:48:29;;;;;;;7.65;1.95;;;;;;;21.95;44.35;101213.09;5033298;28;20061;-39
2023/09/23 10:51:01;;;;;;;9.27;2.03;;;;;;;20.12;50.00;101217.13;5052298;28;20049;-39
2023/09/23 10:53:29;;;;;;;7.60;1.65;;;;;;;20.38;50.55;101222.16;5043708;28;20049;-39
2023/09/23 10:56:01;;;;;;;5.72;1.80;;;;;;;21.42;47.83;101224.59;5050428;28;20045;-38
2023/09/23 10:58:33;;;;;;;6.68;2.42;;;;;;;19.84;46.52;101222.88;5049432;28;20419;-38
2023/09/23 11:01:01;;;;;;;5.72;2.10;;;;;;;20.38;48.79;101222.94;5049929;28;20063;-37
2023/09/23 11:03:30;;;;;;;8.20;2.28;;;;;;;20.05;50.55;101228.16;5050384;28;20056;-38
2023/09/23 11:06:08;;;;;;;6.70;2.13;;;;;;;21.38;46.85;101224.53;5051474;28;20047;-39
2023/09/23 11:08:54;;;;;;;4.93;2.00;;;;;;;21.85;45.66;101221.34;5060307;28;20036;-37
2023/09/23 11:11:22;;;;;;;8.52;2.03;;;;;;;21.70;44.82;101214.69;5030201;28;20415;-38
2023/09/23 11:13:50;;;;;;;7.97;2.40;;;;;;;21.79;43.62;101220.06;5050647;28;20045;-40
2023/09/23 11:16:17;;;;;;;7.03;2.15;;;;;;;20.62;45.26;101235.84;5051912;28;20048;-37
2023/09/23 11:18:46;;;;;;;5.55;1.80;;;;;;;21.14;46.71;101231.34;5049917;28;20048;-38
2023/09/23 11:21:14;;;;;;;12.30;2.22;;;;;;;20.17;44.81;101231.69;5051565;28;20053;-39
2023/09/23 11:23:42;;;;;;;10.13;2.45;;;;;;;20.51;47.19;101238.44;5049855;28;20059;-38
2023/09/23 11:26:11;;;;;;;8.45;1.92;;;;;;;19.52;48.62;101240.06;5051340;28;20377;-39
2023/09/23 11:28:38;;;;;;;6.78;1.83;;;;;;;20.46;46.79;101243.50;5049933;28;20045;-38
2023/09/23 11:31:05;;;;;;;8.40;1.90;;;;;;;21.19;45.73;101244.22;5050225;28;20048;-39
2023/09/23 11:33:33;;;;;;;6.28;2.20;;;;;;;21.60;44.59;101243.34;5051375;28;20047;-38